sensor_id;sensor_type;location;lat;lon;timestamp;P1;durP1;ratioP1;P2;durP2;ratioP2
64452;SDS011;50813;52.654;6.766;2023-04-30T00:02:02;10.3;;;7.0;;
64452;SDS011;50813;52.654;6.766;2023-04-30T00:03:38;9.6;;;6.5;;
64452;SDS011;50813;52.654;6.766;2023-04-30T00:05:14;11.0;;;7.9;;
64452;SDS011;50813;52.654;6.766;2023-04-30T00:08:26;12.6;;;7.4;;
64452;SDS011;50813;52.654;6.766;2023-04-30T00:10:03;12.8;;;7.8;;
64452;SDS011;50813;52.654;6.766;2023-04-30T00:11:40;13.2;;;8.5;;
64452;SDS011;50813;52.654;6.766;2023-04-30T00:13:16;13.6;;;8.0;;
64452;SDS011;50813;52.654;6.766;2023-04-30T00:16:28;13.8;;;8.71;;
64452;SDS011;50813;52.654;6.766;2023-04-30T00:18:04;14.2;;;8.5;;
64452;SDS011;50813;52.654;6.766;2023-04-30T00:19:40;12.4;;;8.31;;
64452;SDS011;50813;52.654;6.766;2023-04-30T00:22:55;14.2;;;8.31;;
64452;SDS011;50813;52.654;6.766;2023-04-30T00:24:31;15.1;;;8.1;;
64452;SDS011;50813;52.654;6.766;2023-04-30T00:26:07;12.1;;;7.8;;
64452;SDS011;50813;52.654;6.766;2023-04-30T00:29:19;11.7;;;7.7;;
64452;SDS011;50813;52.654;6.766;2023-04-30T00:30:55;9.81;;;7.3;;
64452;SDS011;50813;52.654;6.766;2023-04-30T00:32:31;10.9;;;7.4;;
64452;SDS011;50813;52.654;6.766;2023-04-30T00:34:07;13.0;;;8.5;;
64452;SDS011;50813;52.654;6.766;2023-04-30T00:37:19;12.7;;;8.2;;
64452;SDS011;50813;52.654;6.766;2023-04-30T00:38:56;11.5;;;8.81;;
64452;SDS011;50813;52.654;6.766;2023-04-30T00:40:32;11.9;;;8.4;;
64452;SDS011;50813;52.654;6.766;2023-04-30T00:43:45;11.7;;;8.1;;
64452;SDS011;50813;52.654;6.766;2023-04-30T00:45:21;13.1;;;9.0;;
64452;SDS011;50813;52.654;6.766;2023-04-30T00:46:57;12.7;;;8.1;;
64452;SDS011;50813;52.654;6.766;2023-04-30T00:50:09;13.9;;;7.9;;
64452;SDS011;50813;52.654;6.766;2023-04-30T00:51:46;10.9;;;7.4;;
64452;SDS011;50813;52.654;6.766;2023-04-30T00:53:23;11.2;;;7.3;;
64452;SDS011;50813;52.654;6.766;2023-04-30T00:56:36;13.1;;;9.31;;
64452;SDS011;50813;52.654;6.766;2023-04-30T00:58:12;14.8;;;8.6;;
64452;SDS011;50813;52.654;6.766;2023-04-30T00:59:48;14.5;;;9.0;;
64452;SDS011;50813;52.654;6.766;2023-04-30T01:01:26;12.7;;;8.4;;
64452;SDS011;50813;52.654;6.766;2023-04-30T01:04:38;14.3;;;8.9;;
64452;SDS011;50813;52.654;6.766;2023-04-30T01:06:15;12.0;;;8.71;;
64452;SDS011;50813;52.654;6.766;2023-04-30T01:07:51;14.1;;;9.21;;
64452;SDS011;50813;52.654;6.766;2023-04-30T01:11:11;12.8;;;8.4;;
64452;SDS011;50813;52.654;6.766;2023-04-30T01:12:58;12.4;;;9.5;;
64452;SDS011;50813;52.654;6.766;2023-04-30T01:14:44;11.7;;;8.1;;
64452;SDS011;50813;52.654;6.766;2023-04-30T01:16:35;13.9;;;8.0;;
64452;SDS011;50813;52.654;6.766;2023-04-30T01:18:20;15.6;;;9.21;;
64452;SDS011;50813;52.654;6.766;2023-04-30T01:21:42;11.8;;;8.6;;
64452;SDS011;50813;52.654;6.766;2023-04-30T01:23:22;11.5;;;8.31;;
64452;SDS011;50813;52.654;6.766;2023-04-30T01:25:22;14.2;;;9.0;;
64452;SDS011;50813;52.654;6.766;2023-04-30T01:27:30;16.3;;;10.21;;
64452;SDS011;50813;52.654;6.766;2023-04-30T01:29:16;15.8;;;9.6;;
64452;SDS011;50813;52.654;6.766;2023-04-30T01:30:54;13.8;;;8.71;;
64452;SDS011;50813;52.654;6.766;2023-04-30T01:34:07;18.2;;;10.5;;
64452;SDS011;50813;52.654;6.766;2023-04-30T01:35:46;17.2;;;10.8;;
64452;SDS011;50813;52.654;6.766;2023-04-30T01:37:42;16.5;;;10.7;;
64452;SDS011;50813;52.654;6.766;2023-04-30T01:39:38;19.7;;;11.5;;
64452;SDS011;50813;52.654;6.766;2023-04-30T01:42:02;16.0;;;10.9;;
64452;SDS011;50813;52.654;6.766;2023-04-30T01:43:54;16.4;;;11.1;;
64452;SDS011;50813;52.654;6.766;2023-04-30T01:45:45;18.2;;;11.5;;
64452;SDS011;50813;52.654;6.766;2023-04-30T01:47:35;19.11;;;12.3;;
64452;SDS011;50813;52.654;6.766;2023-04-30T01:49:26;16.7;;;11.2;;
64452;SDS011;50813;52.654;6.766;2023-04-30T01:53:01;16.11;;;11.7;;
64452;SDS011;50813;52.654;6.766;2023-04-30T01:54:43;17.0;;;11.1;;
64452;SDS011;50813;52.654;6.766;2023-04-30T01:56:26;18.5;;;11.7;;
64452;SDS011;50813;52.654;6.766;2023-04-30T01:58:08;15.4;;;9.71;;
64452;SDS011;50813;52.654;6.766;2023-04-30T02:01:25;16.61;;;11.6;;
64452;SDS011;50813;52.654;6.766;2023-04-30T02:03:03;14.1;;;10.8;;
64452;SDS011;50813;52.654;6.766;2023-04-30T02:04:40;12.4;;;10.3;;
64452;SDS011;50813;52.654;6.766;2023-04-30T02:06:16;15.6;;;11.1;;
64452;SDS011;50813;52.654;6.766;2023-04-30T02:09:28;17.2;;;10.9;;
64452;SDS011;50813;52.654;6.766;2023-04-30T02:11:04;20.6;;;12.1;;
64452;SDS011;50813;52.654;6.766;2023-04-30T02:12:40;17.3;;;12.5;;
64452;SDS011;50813;52.654;6.766;2023-04-30T02:15:54;17.0;;;12.6;;
64452;SDS011;50813;52.654;6.766;2023-04-30T02:19:07;18.3;;;12.4;;
64452;SDS011;50813;52.654;6.766;2023-04-30T02:22:20;16.5;;;11.7;;
64452;SDS011;50813;52.654;6.766;2023-04-30T02:23:56;18.3;;;10.3;;
64452;SDS011;50813;52.654;6.766;2023-04-30T02:25:32;15.6;;;9.9;;
64452;SDS011;50813;52.654;6.766;2023-04-30T02:27:09;16.0;;;12.0;;
64452;SDS011;50813;52.654;6.766;2023-04-30T02:30:21;19.0;;;12.3;;
64452;SDS011;50813;52.654;6.766;2023-04-30T02:31:57;16.11;;;12.2;;
64452;SDS011;50813;52.654;6.766;2023-04-30T02:33:34;17.41;;;12.2;;
64452;SDS011;50813;52.654;6.766;2023-04-30T02:36:46;15.7;;;12.1;;
64452;SDS011;50813;52.654;6.766;2023-04-30T02:38:23;18.61;;;13.3;;
64452;SDS011;50813;52.654;6.766;2023-04-30T02:39:59;16.8;;;12.8;;
64452;SDS011;50813;52.654;6.766;2023-04-30T02:43:11;18.41;;;11.7;;
64452;SDS011;50813;52.654;6.766;2023-04-30T02:44:47;18.91;;;13.1;;
64452;SDS011;50813;52.654;6.766;2023-04-30T02:46:23;18.61;;;13.6;;
64452;SDS011;50813;52.654;6.766;2023-04-30T02:47:59;18.41;;;12.0;;
64452;SDS011;50813;52.654;6.766;2023-04-30T02:51:12;16.3;;;13.1;;
64452;SDS011;50813;52.654;6.766;2023-04-30T02:52:48;19.2;;;13.7;;
64452;SDS011;50813;52.654;6.766;2023-04-30T02:54:24;20.6;;;13.4;;
64452;SDS011;50813;52.654;6.766;2023-04-30T02:57:36;19.11;;;13.7;;
64452;SDS011;50813;52.654;6.766;2023-04-30T02:59:13;18.8;;;13.5;;
64452;SDS011;50813;52.654;6.766;2023-04-30T03:00:49;15.0;;;12.7;;
64452;SDS011;50813;52.654;6.766;2023-04-30T03:04:02;17.61;;;13.6;;
64452;SDS011;50813;52.654;6.766;2023-04-30T03:05:38;16.8;;;12.8;;
64452;SDS011;50813;52.654;6.766;2023-04-30T03:07:14;17.7;;;13.3;;
64452;SDS011;50813;52.654;6.766;2023-04-30T03:10:27;19.2;;;13.6;;
64452;SDS011;50813;52.654;6.766;2023-04-30T03:12:03;17.3;;;12.8;;
64452;SDS011;50813;52.654;6.766;2023-04-30T03:13:41;16.3;;;11.7;;
64452;SDS011;50813;52.654;6.766;2023-04-30T03:15:18;17.41;;;12.4;;
64452;SDS011;50813;52.654;6.766;2023-04-30T03:18:31;16.5;;;12.6;;
64452;SDS011;50813;52.654;6.766;2023-04-30T03:20:08;19.2;;;12.9;;
64452;SDS011;50813;52.654;6.766;2023-04-30T03:21:46;14.9;;;11.1;;
64452;SDS011;50813;52.654;6.766;2023-04-30T03:24:59;15.0;;;11.3;;
64452;SDS011;50813;52.654;6.766;2023-04-30T03:26:35;16.8;;;12.0;;
64452;SDS011;50813;52.654;6.766;2023-04-30T03:28:12;18.5;;;12.9;;
64452;SDS011;50813;52.654;6.766;2023-04-30T03:29:49;20.7;;;13.7;;
64452;SDS011;50813;52.654;6.766;2023-04-30T03:33:02;14.9;;;12.5;;
64452;SDS011;50813;52.654;6.766;2023-04-30T03:34:39;18.2;;;13.0;;
64452;SDS011;50813;52.654;6.766;2023-04-30T03:36:16;19.7;;;14.5;;
64452;SDS011;50813;52.654;6.766;2023-04-30T03:39:29;16.7;;;13.1;;
64452;SDS011;50813;52.654;6.766;2023-04-30T03:41:05;17.0;;;13.4;;
64452;SDS011;50813;52.654;6.766;2023-04-30T03:42:42;15.4;;;13.2;;
64452;SDS011;50813;52.654;6.766;2023-04-30T03:45:55;14.7;;;11.9;;
64452;SDS011;50813;52.654;6.766;2023-04-30T03:47:31;15.2;;;11.1;;
64452;SDS011;50813;52.654;6.766;2023-04-30T03:49:07;11.6;;;9.81;;
64452;SDS011;50813;52.654;6.766;2023-04-30T03:50:44;14.5;;;11.3;;
64452;SDS011;50813;52.654;6.766;2023-04-30T03:53:56;13.9;;;12.4;;
64452;SDS011;50813;52.654;6.766;2023-04-30T03:55:32;20.7;;;13.1;;
64452;SDS011;50813;52.654;6.766;2023-04-30T03:57:10;18.91;;;13.4;;
64452;SDS011;50813;52.654;6.766;2023-04-30T04:00:22;17.0;;;13.2;;
64452;SDS011;50813;52.654;6.766;2023-04-30T04:01:58;15.8;;;12.9;;
64452;SDS011;50813;52.654;6.766;2023-04-30T04:03:35;13.9;;;11.7;;
64452;SDS011;50813;52.654;6.766;2023-04-30T04:06:47;12.3;;;10.5;;
64452;SDS011;50813;52.654;6.766;2023-04-30T04:08:23;13.9;;;10.9;;
64452;SDS011;50813;52.654;6.766;2023-04-30T04:09:59;16.8;;;10.4;;
64452;SDS011;50813;52.654;6.766;2023-04-30T04:13:12;12.7;;;9.81;;
64452;SDS011;50813;52.654;6.766;2023-04-30T04:14:48;11.6;;;9.31;;
64452;SDS011;50813;52.654;6.766;2023-04-30T04:16:24;10.4;;;8.5;;
64452;SDS011;50813;52.654;6.766;2023-04-30T04:18:00;10.3;;;8.0;;
64452;SDS011;50813;52.654;6.766;2023-04-30T04:21:12;8.81;;;7.9;;
64452;SDS011;50813;52.654;6.766;2023-04-30T04:22:48;8.81;;;7.9;;
64452;SDS011;50813;52.654;6.766;2023-04-30T04:24:24;9.5;;;8.2;;
64452;SDS011;50813;52.654;6.766;2023-04-30T04:27:38;11.1;;;8.4;;
64452;SDS011;50813;52.654;6.766;2023-04-30T04:29:14;9.9;;;8.81;;
64452;SDS011;50813;52.654;6.766;2023-04-30T04:30:50;10.4;;;8.81;;
64452;SDS011;50813;52.654;6.766;2023-04-30T04:34:03;11.2;;;9.5;;
64452;SDS011;50813;52.654;6.766;2023-04-30T04:35:40;13.3;;;10.5;;
64452;SDS011;50813;52.654;6.766;2023-04-30T04:37:17;15.8;;;11.7;;
64452;SDS011;50813;52.654;6.766;2023-04-30T04:38:54;13.0;;;10.7;;
64452;SDS011;50813;52.654;6.766;2023-04-30T04:42:07;16.9;;;12.5;;
64452;SDS011;50813;52.654;6.766;2023-04-30T04:43:43;15.7;;;11.3;;
64452;SDS011;50813;52.654;6.766;2023-04-30T04:45:19;15.7;;;12.9;;
64452;SDS011;50813;52.654;6.766;2023-04-30T04:48:32;15.5;;;11.4;;
64452;SDS011;50813;52.654;6.766;2023-04-30T04:50:09;14.5;;;10.9;;
64452;SDS011;50813;52.654;6.766;2023-04-30T04:51:45;13.5;;;11.3;;
64452;SDS011;50813;52.654;6.766;2023-04-30T04:54:58;15.0;;;11.4;;
64452;SDS011;50813;52.654;6.766;2023-04-30T04:56:34;16.0;;;11.1;;
64452;SDS011;50813;52.654;6.766;2023-04-30T04:58:10;13.8;;;11.9;;
64452;SDS011;50813;52.654;6.766;2023-04-30T05:01:22;14.7;;;12.1;;
64452;SDS011;50813;52.654;6.766;2023-04-30T05:02:58;15.7;;;11.2;;
64452;SDS011;50813;52.654;6.766;2023-04-30T05:04:34;12.6;;;11.2;;
64452;SDS011;50813;52.654;6.766;2023-04-30T05:06:10;12.0;;;9.81;;
64452;SDS011;50813;52.654;6.766;2023-04-30T05:09:23;12.6;;;10.6;;
64452;SDS011;50813;52.654;6.766;2023-04-30T05:11:00;17.0;;;11.8;;
64452;SDS011;50813;52.654;6.766;2023-04-30T05:12:36;14.4;;;11.5;;
64452;SDS011;50813;52.654;6.766;2023-04-30T05:15:49;19.11;;;13.0;;
64452;SDS011;50813;52.654;6.766;2023-04-30T05:17:27;18.0;;;12.9;;
64452;SDS011;50813;52.654;6.766;2023-04-30T05:19:03;20.11;;;13.1;;
64452;SDS011;50813;52.654;6.766;2023-04-30T05:22:16;18.2;;;11.9;;
64452;SDS011;50813;52.654;6.766;2023-04-30T05:23:52;30.1;;;15.3;;
64452;SDS011;50813;52.654;6.766;2023-04-30T05:25:28;16.7;;;12.5;;
64452;SDS011;50813;52.654;6.766;2023-04-30T05:27:04;18.0;;;11.7;;
64452;SDS011;50813;52.654;6.766;2023-04-30T05:30:16;18.2;;;12.4;;
64452;SDS011;50813;52.654;6.766;2023-04-30T05:31:52;20.5;;;14.9;;
64452;SDS011;50813;52.654;6.766;2023-04-30T05:33:28;51.1;;;22.5;;
64452;SDS011;50813;52.654;6.766;2023-04-30T05:36:42;18.61;;;14.9;;
64452;SDS011;50813;52.654;6.766;2023-04-30T05:38:18;62.9;;;17.41;;
64452;SDS011;50813;52.654;6.766;2023-04-30T05:39:54;14.3;;;12.0;;
64452;SDS011;50813;52.654;6.766;2023-04-30T05:43:07;17.41;;;13.1;;
64452;SDS011;50813;52.654;6.766;2023-04-30T05:44:43;35.4;;;13.9;;
64452;SDS011;50813;52.654;6.766;2023-04-30T05:46:19;14.8;;;11.5;;
64452;SDS011;50813;52.654;6.766;2023-04-30T05:47:55;18.7;;;11.1;;
64452;SDS011;50813;52.654;6.766;2023-04-30T05:51:08;14.6;;;11.0;;
64452;SDS011;50813;52.654;6.766;2023-04-30T05:52:44;25.6;;;12.5;;
64452;SDS011;50813;52.654;6.766;2023-04-30T05:54:20;23.2;;;11.5;;
64452;SDS011;50813;52.654;6.766;2023-04-30T05:57:33;13.9;;;9.4;;
64452;SDS011;50813;52.654;6.766;2023-04-30T05:59:09;12.7;;;9.31;;
64452;SDS011;50813;52.654;6.766;2023-04-30T06:00:47;12.5;;;8.9;;
64452;SDS011;50813;52.654;6.766;2023-04-30T06:04:00;14.0;;;9.81;;
64452;SDS011;50813;52.654;6.766;2023-04-30T06:05:36;12.7;;;8.5;;
64452;SDS011;50813;52.654;6.766;2023-04-30T06:07:13;56.2;;;13.3;;
64452;SDS011;50813;52.654;6.766;2023-04-30T06:08:49;57.9;;;10.7;;
64452;SDS011;50813;52.654;6.766;2023-04-30T06:12:01;13.6;;;7.6;;
64452;SDS011;50813;52.654;6.766;2023-04-30T06:13:39;17.11;;;7.6;;
64452;SDS011;50813;52.654;6.766;2023-04-30T06:15:16;87.1;;;14.1;;
64452;SDS011;50813;52.654;6.766;2023-04-30T06:18:28;113.1;;;16.9;;
64452;SDS011;50813;52.654;6.766;2023-04-30T06:20:04;12.1;;;6.2;;
64452;SDS011;50813;52.654;6.766;2023-04-30T06:21:42;17.11;;;6.3;;
64452;SDS011;50813;52.654;6.766;2023-04-30T06:24:55;11.2;;;5.5;;
64452;SDS011;50813;52.654;6.766;2023-04-30T06:26:31;42.7;;;12.9;;
64452;SDS011;50813;52.654;6.766;2023-04-30T06:28:07;10.1;;;4.61;;
64452;SDS011;50813;52.654;6.766;2023-04-30T06:29:44;7.8;;;4.8;;
64452;SDS011;50813;52.654;6.766;2023-04-30T06:32:57;11.5;;;5.3;;
64452;SDS011;50813;52.654;6.766;2023-04-30T06:34:33;8.6;;;4.91;;
64452;SDS011;50813;52.654;6.766;2023-04-30T06:36:10;10.9;;;5.0;;
64452;SDS011;50813;52.654;6.766;2023-04-30T06:39:22;61.9;;;10.0;;
64452;SDS011;50813;52.654;6.766;2023-04-30T06:40:58;25.8;;;7.6;;
64452;SDS011;50813;52.654;6.766;2023-04-30T06:42:35;12.5;;;4.5;;
64452;SDS011;50813;52.654;6.766;2023-04-30T06:45:47;35.6;;;7.0;;
64452;SDS011;50813;52.654;6.766;2023-04-30T06:47:23;15.7;;;6.0;;
64452;SDS011;50813;52.654;6.766;2023-04-30T06:49:00;143.21;;;11.2;;
64452;SDS011;50813;52.654;6.766;2023-04-30T06:52:13;67.0;;;8.9;;
64452;SDS011;50813;52.654;6.766;2023-04-30T06:53:49;42.7;;;10.3;;
64452;SDS011;50813;52.654;6.766;2023-04-30T06:55:26;20.3;;;6.0;;
64452;SDS011;50813;52.654;6.766;2023-04-30T06:57:02;17.2;;;4.7;;
64452;SDS011;50813;52.654;6.766;2023-04-30T07:00:14;49.2;;;6.2;;
64452;SDS011;50813;52.654;6.766;2023-04-30T07:01:50;10.5;;;4.1;;
64452;SDS011;50813;52.654;6.766;2023-04-30T07:03:27;13.0;;;3.9;;
64452;SDS011;50813;52.654;6.766;2023-04-30T07:06:41;18.3;;;8.0;;
64452;SDS011;50813;52.654;6.766;2023-04-30T07:08:17;12.6;;;4.3;;
64452;SDS011;50813;52.654;6.766;2023-04-30T07:09:53;40.21;;;4.1;;
64452;SDS011;50813;52.654;6.766;2023-04-30T07:13:06;11.8;;;3.8;;
64452;SDS011;50813;52.654;6.766;2023-04-30T07:14:42;13.7;;;4.2;;
64452;SDS011;50813;52.654;6.766;2023-04-30T07:16:18;37.5;;;4.61;;
64452;SDS011;50813;52.654;6.766;2023-04-30T07:17:54;10.5;;;3.0;;
64452;SDS011;50813;52.654;6.766;2023-04-30T07:21:07;9.1;;;2.9;;
64452;SDS011;50813;52.654;6.766;2023-04-30T07:22:43;11.8;;;3.6;;
64452;SDS011;50813;52.654;6.766;2023-04-30T07:24:20;10.7;;;3.7;;
64452;SDS011;50813;52.654;6.766;2023-04-30T07:27:33;50.7;;;4.91;;
64452;SDS011;50813;52.654;6.766;2023-04-30T07:29:09;13.4;;;3.7;;
64452;SDS011;50813;52.654;6.766;2023-04-30T07:30:45;30.2;;;3.6;;
64452;SDS011;50813;52.654;6.766;2023-04-30T07:33:58;9.4;;;2.9;;
64452;SDS011;50813;52.654;6.766;2023-04-30T07:35:34;11.0;;;2.6;;
64452;SDS011;50813;52.654;6.766;2023-04-30T07:37:10;10.1;;;3.0;;
64452;SDS011;50813;52.654;6.766;2023-04-30T07:38:47;8.2;;;3.0;;
64452;SDS011;50813;52.654;6.766;2023-04-30T07:41:59;9.21;;;3.2;;
64452;SDS011;50813;52.654;6.766;2023-04-30T07:43:35;8.5;;;2.8;;
64452;SDS011;50813;52.654;6.766;2023-04-30T07:45:12;10.3;;;3.0;;
64452;SDS011;50813;52.654;6.766;2023-04-30T07:48:26;9.5;;;2.9;;
64452;SDS011;50813;52.654;6.766;2023-04-30T07:50:02;12.9;;;3.1;;
64452;SDS011;50813;52.654;6.766;2023-04-30T07:51:39;5.2;;;2.5;;
64452;SDS011;50813;52.654;6.766;2023-04-30T07:54:53;11.5;;;3.2;;
64452;SDS011;50813;52.654;6.766;2023-04-30T07:56:29;10.0;;;3.1;;
64452;SDS011;50813;52.654;6.766;2023-04-30T07:58:06;13.5;;;3.2;;
64452;SDS011;50813;52.654;6.766;2023-04-30T07:59:42;10.6;;;3.6;;
64452;SDS011;50813;52.654;6.766;2023-04-30T08:02:54;14.0;;;3.7;;
64452;SDS011;50813;52.654;6.766;2023-04-30T08:04:30;11.3;;;3.5;;
64452;SDS011;50813;52.654;6.766;2023-04-30T08:06:06;9.4;;;3.4;;
64452;SDS011;50813;52.654;6.766;2023-04-30T08:09:18;10.5;;;3.4;;
64452;SDS011;50813;52.654;6.766;2023-04-30T08:10:55;11.2;;;3.5;;
64452;SDS011;50813;52.654;6.766;2023-04-30T08:12:31;7.2;;;3.0;;
64452;SDS011;50813;52.654;6.766;2023-04-30T08:15:46;7.2;;;3.2;;
64452;SDS011;50813;52.654;6.766;2023-04-30T08:17:22;10.0;;;3.1;;
64452;SDS011;50813;52.654;6.766;2023-04-30T08:18:58;9.5;;;3.5;;
64452;SDS011;50813;52.654;6.766;2023-04-30T08:22:10;7.2;;;3.4;;
64452;SDS011;50813;52.654;6.766;2023-04-30T08:23:47;7.5;;;3.2;;
64452;SDS011;50813;52.654;6.766;2023-04-30T08:25:23;10.6;;;3.7;;
64452;SDS011;50813;52.654;6.766;2023-04-30T08:26:59;10.5;;;3.3;;
64452;SDS011;50813;52.654;6.766;2023-04-30T08:30:12;6.7;;;3.2;;
64452;SDS011;50813;52.654;6.766;2023-04-30T08:31:48;10.0;;;3.2;;
64452;SDS011;50813;52.654;6.766;2023-04-30T08:33:24;8.71;;;3.2;;
64452;SDS011;50813;52.654;6.766;2023-04-30T08:36:37;7.0;;;2.8;;
64452;SDS011;50813;52.654;6.766;2023-04-30T08:38:13;8.9;;;3.1;;
64452;SDS011;50813;52.654;6.766;2023-04-30T08:39:49;7.5;;;2.8;;
64452;SDS011;50813;52.654;6.766;2023-04-30T08:43:06;8.81;;;3.4;;
64452;SDS011;50813;52.654;6.766;2023-04-30T08:44:43;9.31;;;3.3;;
64452;SDS011;50813;52.654;6.766;2023-04-30T08:46:19;6.8;;;2.9;;
64452;SDS011;50813;52.654;6.766;2023-04-30T08:47:57;9.0;;;3.2;;
64452;SDS011;50813;52.654;6.766;2023-04-30T08:51:12;10.6;;;3.0;;
64452;SDS011;50813;52.654;6.766;2023-04-30T08:52:49;9.0;;;3.2;;
64452;SDS011;50813;52.654;6.766;2023-04-30T08:54:25;7.8;;;2.9;;
64452;SDS011;50813;52.654;6.766;2023-04-30T08:57:45;7.4;;;2.7;;
64452;SDS011;50813;52.654;6.766;2023-04-30T08:59:22;8.6;;;2.9;;
64452;SDS011;50813;52.654;6.766;2023-04-30T09:00:58;8.0;;;4.1;;
64452;SDS011;50813;52.654;6.766;2023-04-30T09:02:38;9.81;;;3.5;;
64452;SDS011;50813;52.654;6.766;2023-04-30T09:05:51;9.5;;;3.4;;
64452;SDS011;50813;52.654;6.766;2023-04-30T09:07:27;8.4;;;3.2;;
64452;SDS011;50813;52.654;6.766;2023-04-30T09:09:10;10.8;;;3.2;;
64452;SDS011;50813;52.654;6.766;2023-04-30T09:10:48;9.31;;;2.9;;
64452;SDS011;50813;52.654;6.766;2023-04-30T09:14:02;7.9;;;2.9;;
64452;SDS011;50813;52.654;6.766;2023-04-30T09:15:39;5.8;;;2.6;;
64452;SDS011;50813;52.654;6.766;2023-04-30T09:17:20;8.71;;;3.3;;
64452;SDS011;50813;52.654;6.766;2023-04-30T09:20:34;9.31;;;2.7;;
64452;SDS011;50813;52.654;6.766;2023-04-30T09:22:17;7.1;;;2.7;;
64452;SDS011;50813;52.654;6.766;2023-04-30T09:23:56;6.5;;;2.6;;
64452;SDS011;50813;52.654;6.766;2023-04-30T09:25:37;9.9;;;2.9;;
64452;SDS011;50813;52.654;6.766;2023-04-30T09:28:53;5.9;;;2.21;;
64452;SDS011;50813;52.654;6.766;2023-04-30T09:30:31;7.9;;;2.6;;
64452;SDS011;50813;52.654;6.766;2023-04-30T09:32:07;7.5;;;2.9;;
64452;SDS011;50813;52.654;6.766;2023-04-30T09:35:27;8.1;;;2.7;;
64452;SDS011;50813;52.654;6.766;2023-04-30T09:37:05;10.21;;;3.0;;
64452;SDS011;50813;52.654;6.766;2023-04-30T09:38:42;8.71;;;3.0;;
64452;SDS011;50813;52.654;6.766;2023-04-30T09:40:19;8.1;;;3.0;;
64452;SDS011;50813;52.654;6.766;2023-04-30T09:43:46;6.3;;;2.5;;
64452;SDS011;50813;52.654;6.766;2023-04-30T09:45:22;9.0;;;2.9;;
64452;SDS011;50813;52.654;6.766;2023-04-30T09:46:58;8.9;;;3.0;;
64452;SDS011;50813;52.654;6.766;2023-04-30T09:48:34;9.9;;;2.9;;
64452;SDS011;50813;52.654;6.766;2023-04-30T09:51:54;9.9;;;2.8;;
64452;SDS011;50813;52.654;6.766;2023-04-30T09:53:31;9.6;;;2.9;;
64452;SDS011;50813;52.654;6.766;2023-04-30T09:55:12;8.6;;;2.4;;
64452;SDS011;50813;52.654;6.766;2023-04-30T09:58:28;6.7;;;2.5;;
64452;SDS011;50813;52.654;6.766;2023-04-30T10:00:11;8.4;;;2.6;;
64452;SDS011;50813;52.654;6.766;2023-04-30T10:01:49;5.4;;;2.8;;
64452;SDS011;50813;52.654;6.766;2023-04-30T10:03:28;8.31;;;2.7;;
64452;SDS011;50813;52.654;6.766;2023-04-30T10:06:43;9.6;;;2.7;;
64452;SDS011;50813;52.654;6.766;2023-04-30T10:08:21;7.3;;;2.6;;
64452;SDS011;50813;52.654;6.766;2023-04-30T10:10:03;6.0;;;2.21;;
64452;SDS011;50813;52.654;6.766;2023-04-30T10:11:44;6.9;;;2.8;;
64452;SDS011;50813;52.654;6.766;2023-04-30T10:15:05;7.0;;;2.4;;
64452;SDS011;50813;52.654;6.766;2023-04-30T10:16:50;9.1;;;3.2;;
64452;SDS011;50813;52.654;6.766;2023-04-30T10:18:32;8.2;;;2.9;;
64452;SDS011;50813;52.654;6.766;2023-04-30T10:20:12;8.5;;;3.3;;
64452;SDS011;50813;52.654;6.766;2023-04-30T10:23:28;6.5;;;2.8;;
64452;SDS011;50813;52.654;6.766;2023-04-30T10:25:05;8.71;;;3.1;;
64452;SDS011;50813;52.654;6.766;2023-04-30T10:26:41;7.1;;;2.4;;
64452;SDS011;50813;52.654;6.766;2023-04-30T10:28:20;9.9;;;2.9;;
64452;SDS011;50813;52.654;6.766;2023-04-30T10:31:34;5.3;;;2.4;;
64452;SDS011;50813;52.654;6.766;2023-04-30T10:33:15;5.3;;;2.6;;
64452;SDS011;50813;52.654;6.766;2023-04-30T10:34:59;6.9;;;2.1;;
64452;SDS011;50813;52.654;6.766;2023-04-30T10:36:46;10.8;;;3.1;;
64452;SDS011;50813;52.654;6.766;2023-04-30T10:40:04;7.1;;;2.9;;
64452;SDS011;50813;52.654;6.766;2023-04-30T10:41:43;8.31;;;3.1;;
64452;SDS011;50813;52.654;6.766;2023-04-30T10:43:22;6.7;;;2.9;;
64452;SDS011;50813;52.654;6.766;2023-04-30T10:45:00;7.6;;;2.6;;
64452;SDS011;50813;52.654;6.766;2023-04-30T10:48:15;10.8;;;2.5;;
64452;SDS011;50813;52.654;6.766;2023-04-30T10:49:55;6.0;;;2.9;;
64452;SDS011;50813;52.654;6.766;2023-04-30T10:51:46;7.2;;;2.7;;
64452;SDS011;50813;52.654;6.766;2023-04-30T10:53:29;7.1;;;2.9;;
64452;SDS011;50813;52.654;6.766;2023-04-30T10:56:45;6.1;;;2.5;;
64452;SDS011;50813;52.654;6.766;2023-04-30T10:58:21;7.4;;;3.0;;
64452;SDS011;50813;52.654;6.766;2023-04-30T11:00:18;7.2;;;3.0;;
64452;SDS011;50813;52.654;6.766;2023-04-30T11:01:56;5.6;;;2.6;;
64452;SDS011;50813;52.654;6.766;2023-04-30T11:05:12;5.7;;;2.6;;
64452;SDS011;50813;52.654;6.766;2023-04-30T11:07:24;7.4;;;2.8;;
64452;SDS011;50813;52.654;6.766;2023-04-30T11:09:02;6.7;;;2.6;;
64452;SDS011;50813;52.654;6.766;2023-04-30T11:10:42;6.3;;;2.4;;
64452;SDS011;50813;52.654;6.766;2023-04-30T11:12:33;24.6;;;3.0;;
64452;SDS011;50813;52.654;6.766;2023-04-30T11:15:47;5.11;;;2.6;;
64452;SDS011;50813;52.654;6.766;2023-04-30T11:17:23;6.9;;;2.7;;
64452;SDS011;50813;52.654;6.766;2023-04-30T11:19:06;7.3;;;2.4;;
64452;SDS011;50813;52.654;6.766;2023-04-30T11:20:48;4.7;;;2.6;;
64452;SDS011;50813;52.654;6.766;2023-04-30T11:24:04;6.9;;;2.5;;
64452;SDS011;50813;52.654;6.766;2023-04-30T11:25:42;7.5;;;3.5;;
64452;SDS011;50813;52.654;6.766;2023-04-30T11:27:21;7.4;;;3.0;;
64452;SDS011;50813;52.654;6.766;2023-04-30T11:28:58;5.8;;;2.6;;
64452;SDS011;50813;52.654;6.766;2023-04-30T11:32:11;6.2;;;2.4;;
64452;SDS011;50813;52.654;6.766;2023-04-30T11:33:48;5.9;;;2.9;;
64452;SDS011;50813;52.654;6.766;2023-04-30T11:35:26;5.4;;;2.6;;
64452;SDS011;50813;52.654;6.766;2023-04-30T11:38:43;6.5;;;2.7;;
64452;SDS011;50813;52.654;6.766;2023-04-30T11:40:20;6.1;;;2.4;;
64452;SDS011;50813;52.654;6.766;2023-04-30T11:41:56;6.2;;;1.9;;
64452;SDS011;50813;52.654;6.766;2023-04-30T11:43:33;6.6;;;2.5;;
64452;SDS011;50813;52.654;6.766;2023-04-30T11:46:49;4.5;;;2.21;;
64452;SDS011;50813;52.654;6.766;2023-04-30T11:48:29;12.2;;;2.6;;
64452;SDS011;50813;52.654;6.766;2023-04-30T11:50:06;6.3;;;2.4;;
64452;SDS011;50813;52.654;6.766;2023-04-30T11:53:26;6.5;;;2.4;;
64452;SDS011;50813;52.654;6.766;2023-04-30T11:55:05;3.7;;;2.0;;
64452;SDS011;50813;52.654;6.766;2023-04-30T11:56:48;3.9;;;2.21;;
64452;SDS011;50813;52.654;6.766;2023-04-30T11:58:25;5.0;;;2.21;;
64452;SDS011;50813;52.654;6.766;2023-04-30T12:01:48;3.6;;;2.21;;
64452;SDS011;50813;52.654;6.766;2023-04-30T12:03:24;6.5;;;2.21;;
64452;SDS011;50813;52.654;6.766;2023-04-30T12:05:00;4.0;;;2.0;;
64452;SDS011;50813;52.654;6.766;2023-04-30T12:06:37;3.3;;;2.21;;
64452;SDS011;50813;52.654;6.766;2023-04-30T12:09:54;5.4;;;2.6;;
64452;SDS011;50813;52.654;6.766;2023-04-30T12:11:31;5.0;;;2.5;;
64452;SDS011;50813;52.654;6.766;2023-04-30T12:13:12;5.3;;;2.5;;
64452;SDS011;50813;52.654;6.766;2023-04-30T12:16:26;4.7;;;2.0;;
64452;SDS011;50813;52.654;6.766;2023-04-30T12:18:13;3.2;;;1.7;;
64452;SDS011;50813;52.654;6.766;2023-04-30T12:19:49;5.7;;;2.0;;
64452;SDS011;50813;52.654;6.766;2023-04-30T12:21:25;4.8;;;2.1;;
64452;SDS011;50813;52.654;6.766;2023-04-30T12:24:39;3.3;;;1.9;;
64452;SDS011;50813;52.654;6.766;2023-04-30T12:26:16;5.0;;;2.0;;
64452;SDS011;50813;52.654;6.766;2023-04-30T12:27:53;6.0;;;2.21;;
64452;SDS011;50813;52.654;6.766;2023-04-30T12:31:05;4.1;;;2.0;;
64452;SDS011;50813;52.654;6.766;2023-04-30T12:32:42;5.0;;;1.9;;
64452;SDS011;50813;52.654;6.766;2023-04-30T12:34:19;5.0;;;2.1;;
64452;SDS011;50813;52.654;6.766;2023-04-30T12:35:56;6.2;;;2.5;;
64452;SDS011;50813;52.654;6.766;2023-04-30T12:39:11;7.0;;;2.5;;
64452;SDS011;50813;52.654;6.766;2023-04-30T12:40:50;4.8;;;2.21;;
64452;SDS011;50813;52.654;6.766;2023-04-30T12:42:30;4.41;;;1.8;;
64452;SDS011;50813;52.654;6.766;2023-04-30T12:46:00;3.8;;;2.0;;
64452;SDS011;50813;52.654;6.766;2023-04-30T12:47:37;3.3;;;1.9;;
64452;SDS011;50813;52.654;6.766;2023-04-30T12:49:22;4.3;;;2.1;;